createdAt,value
2022-11-01T00:03:07.016Z,100.00
2022-11-01T00:08:19.865Z,100.00
2022-11-01T00:13:31.887Z,100.00
2022-11-01T00:18:37.850Z,100.00
2022-11-01T00:23:43.512Z,100.00
2022-11-01T00:28:57.905Z,100.00
2022-11-01T00:34:07.549Z,100.00
2022-11-01T00:39:18.700Z,100.00
2022-11-01T00:44:25.528Z,100.00
2022-11-01T00:49:37.052Z,100.00
2022-11-01T00:54:48.559Z,100.00
2022-11-01T01:00:04.755Z,100.00
2022-11-01T01:05:11.914Z,100.00
2022-11-01T01:10:20.693Z,100.00
2022-11-01T01:15:29.537Z,100.00
2022-11-01T01:20:35.957Z,100.00
2022-11-01T01:25:49.260Z,100.00
2022-11-01T01:30:58.935Z,100.00
2022-11-01T01:36:12.117Z,100.00
2022-11-01T01:41:38.064Z,100.00
2022-11-01T01:46:48.306Z,100.00
2022-11-01T01:51:56.427Z,100.00
2022-11-01T01:57:36.951Z,100.00
2022-11-01T02:02:55.213Z,100.00
2022-11-01T02:08:13.322Z,100.00
2022-11-01T02:13:19.552Z,100.00
2022-11-01T02:18:42.529Z,100.00
2022-11-01T02:24:27.074Z,100.00
2022-11-01T02:30:19.719Z,100.00
2022-11-01T02:35:49.469Z,100.00
2022-11-01T02:41:08.440Z,100.00
2022-11-01T02:46:31.613Z,100.00
2022-11-01T02:52:00.172Z,100.00
2022-11-01T02:57:24.909Z,100.00
2022-11-01T03:02:50.365Z,100.00
2022-11-01T03:08:14.199Z,100.00
2022-11-01T03:13:45.909Z,100.00
2022-11-01T03:19:15.451Z,100.00
2022-11-01T03:24:43.502Z,100.00
2022-11-01T03:30:04.987Z,100.00
2022-11-01T03:35:15.811Z,100.00
2022-11-01T03:51:35.753Z,100.00
2022-11-01T03:56:42.114Z,100.00
2022-11-01T04:02:03.262Z,100.00
2022-11-01T04:07:10.927Z,100.00
2022-11-01T04:12:34.270Z,100.00
2022-11-01T04:17:56.866Z,100.00
2022-11-01T04:23:18.264Z,100.00
2022-11-01T04:28:30.380Z,100.00
2022-11-01T04:33:48.675Z,100.00
2022-11-01T04:39:00.904Z,100.00
2022-11-01T04:44:08.254Z,100.00
2022-11-01T04:49:15.212Z,100.00
2022-11-01T04:54:22.479Z,100.00
2022-11-01T04:59:31.661Z,100.00
2022-11-01T05:04:36.860Z,100.00
2022-11-01T05:09:48.939Z,100.00
2022-11-01T05:14:56.841Z,100.00
2022-11-01T05:20:03.201Z,100.00
2022-11-01T05:25:21.346Z,100.00
2022-11-01T05:30:55.296Z,100.00
2022-11-01T05:36:14.789Z,100.00
2022-11-01T05:41:25.984Z,100.00
2022-11-01T05:46:32.470Z,100.00
2022-11-01T05:51:58.437Z,100.00
2022-11-01T05:57:13.216Z,100.00
2022-11-01T06:02:41.635Z,100.00
2022-11-01T06:07:50.845Z,100.00
2022-11-01T06:13:13.464Z,100.00
2022-11-01T06:18:27.965Z,100.00
2022-11-01T06:23:39.201Z,100.00
2022-11-01T06:28:55.008Z,100.00
2022-11-01T06:34:17.835Z,100.00
2022-11-01T06:39:38.096Z,100.00
2022-11-01T06:45:02.037Z,100.00
2022-11-01T06:50:13.681Z,100.00
2022-11-01T06:55:34.016Z,100.00
2022-11-01T07:01:06.717Z,100.00
2022-11-01T07:06:13.536Z,100.00
2022-11-01T07:11:36.936Z,100.00
2022-11-01T07:16:44.697Z,100.00
2022-11-01T07:22:09.978Z,100.00
2022-11-01T07:27:20.547Z,100.00
2022-11-01T07:32:33.333Z,100.00
2022-11-01T07:37:48.228Z,100.00
2022-11-01T07:43:02.170Z,100.00
2022-11-01T07:48:34.197Z,100.00
2022-11-01T07:53:49.925Z,100.00
2022-11-01T07:58:59.964Z,100.00
2022-11-01T08:04:30.682Z,99.24
2022-11-01T08:09:54.072Z,98.39
2022-11-01T08:15:21.143Z,98.16
2022-11-01T08:20:28.006Z,97.77
2022-11-01T08:25:38.871Z,97.07
2022-11-01T08:30:48.119Z,97.12
2022-11-01T08:36:10.777Z,96.85
2022-11-01T08:41:44.578Z,95.96
2022-11-01T08:47:02.424Z,96.48
2022-11-01T08:52:26.836Z,96.05
2022-11-01T09:03:30.822Z,94.30
2022-11-01T09:08:40.445Z,93.50
2022-11-01T09:14:09.401Z,92.33
2022-11-01T09:19:32.535Z,91.66
2022-11-01T09:24:45.903Z,92.04
2022-11-01T09:30:10.905Z,91.77
2022-11-01T09:35:22.729Z,91.03
2022-11-01T09:40:49.195Z,91.04
2022-11-01T09:46:02.421Z,90.17
2022-11-01T09:51:21.402Z,90.67
2022-11-01T09:56:39.970Z,91.40
2022-11-01T10:02:09.895Z,91.56
2022-11-01T10:07:32.950Z,91.97
2022-11-01T10:12:57.198Z,93.20
2022-11-01T10:18:28.118Z,93.80
2022-11-01T10:23:41.078Z,93.07
2022-11-01T10:28:51.758Z,93.07
2022-11-01T10:34:01.322Z,92.69
2022-11-01T10:44:42.542Z,91.48
2022-11-01T10:50:05.315Z,91.27
2022-11-01T10:55:15.511Z,90.00
2022-11-01T11:00:21.535Z,89.33
2022-11-01T11:05:29.192Z,88.99
2022-11-01T11:10:32.364Z,88.43
2022-11-01T11:15:41.771Z,87.96
2022-11-01T11:20:52.485Z,87.57
2022-11-01T11:26:02.398Z,86.93
2022-11-01T11:31:18.645Z,86.39
2022-11-01T11:36:30.463Z,86.11
2022-11-01T11:41:36.315Z,86.42
2022-11-01T11:46:57.111Z,85.92
2022-11-01T11:52:01.517Z,84.88
2022-11-01T11:57:12.715Z,84.17
2022-11-01T12:02:21.593Z,82.96
2022-11-01T12:07:38.268Z,82.54
2022-11-01T12:12:42.669Z,82.04
2022-11-01T12:17:47.514Z,82.32
2022-11-01T12:22:59.089Z,81.43
2022-11-01T12:28:04.787Z,82.06
2022-11-01T12:33:21.522Z,81.82
2022-11-01T12:38:42.849Z,81.03
2022-11-01T12:43:57.232Z,80.59
2022-11-01T12:49:06.317Z,80.92
2022-11-01T12:54:16.273Z,80.53
2022-11-01T12:59:29.945Z,80.62
2022-11-01T13:04:37.322Z,80.47
2022-11-01T13:09:51.313Z,80.11
2022-11-01T13:15:04.502Z,80.24
2022-11-01T13:20:22.763Z,80.11
2022-11-01T13:25:37.447Z,79.98
2022-11-01T13:30:47.966Z,80.10
2022-11-01T13:35:59.146Z,79.24
2022-11-01T13:41:19.660Z,79.23
2022-11-01T13:46:34.925Z,79.46
2022-11-01T13:51:43.076Z,79.19
2022-11-01T13:56:54.910Z,79.19
2022-11-01T14:02:14.630Z,79.78
2022-11-01T14:07:18.048Z,79.73
2022-11-01T14:12:37.604Z,79.34
2022-11-01T14:18:04.424Z,79.90
2022-11-01T14:23:52.713Z,79.78
2022-11-01T14:28:59.772Z,79.54
2022-11-01T14:34:07.261Z,79.88
2022-11-01T14:39:20.476Z,79.92
2022-11-01T14:44:32.374Z,80.09
2022-11-01T14:49:42.438Z,80.26
2022-11-01T14:54:51.509Z,80.35
2022-11-01T14:59:57.217Z,80.83
2022-11-01T15:05:02.009Z,81.24
2022-11-01T15:10:07.719Z,81.34
2022-11-01T15:15:16.100Z,81.93
2022-11-01T15:20:20.880Z,82.37
2022-11-01T15:25:26.670Z,82.77
2022-11-01T15:30:33.612Z,84.02
2022-11-01T15:35:36.947Z,84.47
2022-11-01T15:40:40.875Z,85.00
2022-11-01T15:45:46.206Z,85.15
2022-11-01T15:50:53.080Z,85.75
2022-11-01T15:56:02.272Z,85.71
2022-11-01T16:01:14.367Z,85.85
2022-11-01T16:06:23.009Z,86.04
2022-11-01T16:11:29.458Z,86.27
2022-11-01T16:16:58.683Z,86.73
2022-11-01T16:22:01.636Z,87.30
2022-11-01T16:27:04.707Z,87.98
2022-11-01T16:32:17.886Z,89.23
2022-11-01T16:37:22.742Z,89.61
2022-11-01T16:42:26.563Z,90.28
2022-11-01T16:47:31.158Z,91.14
2022-11-01T16:52:35.765Z,91.44
2022-11-01T16:57:39.731Z,92.07
2022-11-01T17:02:44.253Z,92.63
2022-11-01T17:07:47.921Z,93.33
2022-11-01T17:12:51.036Z,93.73
2022-11-01T17:17:56.125Z,94.52
2022-11-01T17:22:59.813Z,95.03
2022-11-01T17:28:03.365Z,94.99
2022-11-01T17:33:08.132Z,95.72
2022-11-01T17:38:15.615Z,96.31
2022-11-01T17:43:20.014Z,96.44
2022-11-01T17:48:24.424Z,96.81
2022-11-01T17:53:27.365Z,97.27
2022-11-01T17:58:30.323Z,98.21
2022-11-01T18:03:34.648Z,98.88
2022-11-01T18:08:44.876Z,100.00
2022-11-01T18:14:03.576Z,100.00
2022-11-01T18:19:20.584Z,100.00
2022-11-01T18:24:31.778Z,100.00
2022-11-01T18:29:40.054Z,100.00
2022-11-01T18:34:49.274Z,100.00
2022-11-01T18:39:59.212Z,100.00
2022-11-01T18:45:16.361Z,100.00
2022-11-01T18:50:26.149Z,100.00
2022-11-01T18:55:33.165Z,100.00
2022-11-01T19:00:36.380Z,100.00
2022-11-01T19:05:41.267Z,100.00
2022-11-01T19:10:44.300Z,99.57
2022-11-01T19:15:53.106Z,97.18
2022-11-01T19:21:00.372Z,95.21
2022-11-01T19:26:04.078Z,93.51
2022-11-01T19:31:15.718Z,91.80
2022-11-01T19:36:22.210Z,89.43
2022-11-01T19:41:31.137Z,86.95
2022-11-01T19:46:39.409Z,86.73
2022-11-01T19:51:46.245Z,87.25
2022-11-01T19:56:50.246Z,86.38
2022-11-01T20:02:09.911Z,87.03
2022-11-01T20:07:26.957Z,87.38
2022-11-01T20:12:30.217Z,88.43
2022-11-01T20:17:33.775Z,90.04
2022-11-01T20:22:38.363Z,91.34
2022-11-01T20:27:41.328Z,92.21
2022-11-01T20:32:44.590Z,92.99
2022-11-01T20:37:48.979Z,94.58
2022-11-01T20:42:52.406Z,95.44
2022-11-01T20:47:55.364Z,95.75
2022-11-01T20:52:59.818Z,96.52
2022-11-01T20:58:03.888Z,96.56
2022-11-01T21:03:14.483Z,97.16
2022-11-01T21:08:23.025Z,97.51
2022-11-01T21:13:30.367Z,97.55
2022-11-01T21:18:43.704Z,97.86
2022-11-01T21:23:48.504Z,98.13
2022-11-01T21:28:53.886Z,98.49
2022-11-01T21:33:58.438Z,97.98
2022-11-01T21:39:04.591Z,97.89
2022-11-01T21:44:21.830Z,97.60
2022-11-01T21:49:30.655Z,97.27
2022-11-01T21:54:36.857Z,96.88
2022-11-01T21:59:40.150Z,96.22
2022-11-01T22:04:44.098Z,96.45
2022-11-01T22:09:48.632Z,96.53
2022-11-01T22:14:51.658Z,95.77
2022-11-01T22:19:54.675Z,95.54
2022-11-01T22:24:59.331Z,95.63
2022-11-01T22:30:02.507Z,94.91
2022-11-01T22:35:06.157Z,95.09
2022-11-01T22:40:15.113Z,94.31
2022-11-01T22:45:19.592Z,94.65
2022-11-01T22:50:28.985Z,93.93
2022-11-01T22:55:43.997Z,94.35
2022-11-01T23:00:47.660Z,94.06
2022-11-01T23:05:52.414Z,94.80
2022-11-01T23:10:57.893Z,94.50
2022-11-01T23:16:02.652Z,95.20
2022-11-01T23:21:08.214Z,95.56
2022-11-01T23:26:14.377Z,95.64
2022-11-01T23:31:17.959Z,96.48
2022-11-01T23:36:24.082Z,96.39
2022-11-01T23:41:33.632Z,97.45
2022-11-01T23:46:36.881Z,97.37
2022-11-01T23:51:40.069Z,97.29
2022-11-01T23:56:44.892Z,98.03
